Naples, Illinois
Current Conditions -  °F | °C
As of 10:55 AM on Friday 24 Oct 2014 (Local Time) from KPPQ Reporting Station
Haze Haze  
Wind Chill: 58°   Ceiling: 200
Heat Index: 58°   Visibility: 3mi
Dew Point: 57°   Wind: 3mph
Humidity: 94%   Direction: 220°SW
Pressure: 30.11"   Gusts: NA
Location:  39.7431°N, 90.5444°W
Report Text: KPPQ 241555Z AUTO 22003KT 3SM BR OVC002 15/14 A3011 RMK AO2 T01460137
Loading
Personal Weather Stations






























Interactive Weather Map
Tropical Storm Tracking
New forecast layout! Learn more

10-Day Weather Forecast

Advertisements
Track Severe Weather on mobile